sensor_id;sensor_type;location;lat;lon;timestamp;P1;durP1;ratioP1;P2;durP2;ratioP2
23300;SDS011;11819;51.394;12.340;2022-09-29T00:02:18;11.50;;;6.32;;
23300;SDS011;11819;51.394;12.340;2022-09-29T00:04:44;12.10;;;6.18;;
23300;SDS011;11819;51.394;12.340;2022-09-29T00:07:10;10.18;;;6.13;;
23300;SDS011;11819;51.394;12.340;2022-09-29T00:09:35;9.20;;;5.63;;
23300;SDS011;11819;51.394;12.340;2022-09-29T00:12:01;10.30;;;6.20;;
23300;SDS011;11819;51.394;12.340;2022-09-29T00:14:26;9.80;;;6.30;;
23300;SDS011;11819;51.394;12.340;2022-09-29T00:16:52;10.55;;;6.38;;
23300;SDS011;11819;51.394;12.340;2022-09-29T00:19:18;10.73;;;6.30;;
23300;SDS011;11819;51.394;12.340;2022-09-29T00:21:44;11.65;;;6.95;;
23300;SDS011;11819;51.394;12.340;2022-09-29T00:24:09;11.05;;;6.93;;
23300;SDS011;11819;51.394;12.340;2022-09-29T00:26:36;10.20;;;6.53;;
23300;SDS011;11819;51.394;12.340;2022-09-29T00:29:01;12.43;;;6.80;;
23300;SDS011;11819;51.394;12.340;2022-09-29T00:31:28;10.10;;;6.45;;
23300;SDS011;11819;51.394;12.340;2022-09-29T00:33:55;11.52;;;6.65;;
23300;SDS011;11819;51.394;12.340;2022-09-29T00:36:21;11.20;;;7.13;;
23300;SDS011;11819;51.394;12.340;2022-09-29T00:38:49;11.30;;;6.53;;
23300;SDS011;11819;51.394;12.340;2022-09-29T00:41:24;11.02;;;6.45;;
23300;SDS011;11819;51.394;12.340;2022-09-29T00:46:29;10.88;;;6.47;;
23300;SDS011;11819;51.394;12.340;2022-09-29T00:49:25;9.85;;;6.40;;
23300;SDS011;11819;51.394;12.340;2022-09-29T00:52:16;10.23;;;6.15;;
23300;SDS011;11819;51.394;12.340;2022-09-29T00:54:59;11.80;;;6.50;;
23300;SDS011;11819;51.394;12.340;2022-09-29T00:57:32;10.68;;;6.75;;
23300;SDS011;11819;51.394;12.340;2022-09-29T01:00:06;11.95;;;7.15;;
23300;SDS011;11819;51.394;12.340;2022-09-29T01:02:38;13.25;;;7.43;;
23300;SDS011;11819;51.394;12.340;2022-09-29T01:05:10;11.55;;;7.13;;
23300;SDS011;11819;51.394;12.340;2022-09-29T01:07:40;12.68;;;7.07;;
23300;SDS011;11819;51.394;12.340;2022-09-29T01:10:10;11.60;;;7.00;;
23300;SDS011;11819;51.394;12.340;2022-09-29T01:12:38;12.23;;;6.97;;
23300;SDS011;11819;51.394;12.340;2022-09-29T01:15:03;10.45;;;6.03;;
23300;SDS011;11819;51.394;12.340;2022-09-29T01:17:29;10.53;;;6.67;;
23300;SDS011;11819;51.394;12.340;2022-09-29T01:22:48;12.75;;;6.65;;
23300;SDS011;11819;51.394;12.340;2022-09-29T01:28:12;12.05;;;6.88;;
23300;SDS011;11819;51.394;12.340;2022-09-29T01:33:38;12.25;;;7.05;;
23300;SDS011;11819;51.394;12.340;2022-09-29T01:42:07;10.90;;;6.70;;
23300;SDS011;11819;51.394;12.340;2022-09-29T01:44:50;11.02;;;6.13;;
23300;SDS011;11819;51.394;12.340;2022-09-29T01:47:20;12.98;;;6.70;;
23300;SDS011;11819;51.394;12.340;2022-09-29T01:49:51;10.85;;;5.82;;
23300;SDS011;11819;51.394;12.340;2022-09-29T01:52:22;10.00;;;6.20;;
23300;SDS011;11819;51.394;12.340;2022-09-29T01:54:56;10.48;;;6.32;;
23300;SDS011;11819;51.394;12.340;2022-09-29T02:00:04;10.80;;;6.32;;
23300;SDS011;11819;51.394;12.340;2022-09-29T02:02:39;10.77;;;6.43;;
23300;SDS011;11819;51.394;12.340;2022-09-29T02:05:32;9.73;;;5.72;;
23300;SDS011;11819;51.394;12.340;2022-09-29T02:08:10;11.38;;;6.68;;
23300;SDS011;11819;51.394;12.340;2022-09-29T02:10:43;10.57;;;6.10;;
23300;SDS011;11819;51.394;12.340;2022-09-29T02:13:28;11.32;;;6.65;;
23300;SDS011;11819;51.394;12.340;2022-09-29T02:15:57;11.30;;;6.38;;
23300;SDS011;11819;51.394;12.340;2022-09-29T02:18:26;9.02;;;5.68;;
23300;SDS011;11819;51.394;12.340;2022-09-29T02:20:56;10.05;;;5.60;;
23300;SDS011;11819;51.394;12.340;2022-09-29T02:23:21;11.45;;;6.25;;
23300;SDS011;11819;51.394;12.340;2022-09-29T02:25:47;12.37;;;7.20;;
23300;SDS011;11819;51.394;12.340;2022-09-29T02:28:15;8.50;;;5.30;;
23300;SDS011;11819;51.394;12.340;2022-09-29T02:30:41;11.10;;;6.35;;
23300;SDS011;11819;51.394;12.340;2022-09-29T02:33:20;10.50;;;5.82;;
23300;SDS011;11819;51.394;12.340;2022-09-29T02:35:55;9.23;;;5.72;;
23300;SDS011;11819;51.394;12.340;2022-09-29T02:38:42;9.55;;;5.80;;
23300;SDS011;11819;51.394;12.340;2022-09-29T02:47:05;11.77;;;6.57;;
23300;SDS011;11819;51.394;12.340;2022-09-29T02:52:24;12.35;;;6.53;;
23300;SDS011;11819;51.394;12.340;2022-09-29T02:55:14;12.40;;;6.45;;
23300;SDS011;11819;51.394;12.340;2022-09-29T02:57:52;12.43;;;7.03;;
23300;SDS011;11819;51.394;12.340;2022-09-29T03:00:23;11.55;;;6.32;;
23300;SDS011;11819;51.394;12.340;2022-09-29T03:02:50;13.93;;;7.10;;
23300;SDS011;11819;51.394;12.340;2022-09-29T03:05:19;11.93;;;6.67;;
23300;SDS011;11819;51.394;12.340;2022-09-29T03:07:46;11.77;;;6.57;;
23300;SDS011;11819;51.394;12.340;2022-09-29T03:10:13;12.32;;;6.78;;
23300;SDS011;11819;51.394;12.340;2022-09-29T03:12:40;13.00;;;7.00;;
23300;SDS011;11819;51.394;12.340;2022-09-29T03:15:06;12.57;;;6.77;;
23300;SDS011;11819;51.394;12.340;2022-09-29T03:17:32;11.87;;;6.70;;
23300;SDS011;11819;51.394;12.340;2022-09-29T03:19:58;11.48;;;6.20;;
23300;SDS011;11819;51.394;12.340;2022-09-29T03:22:24;10.43;;;5.72;;
23300;SDS011;11819;51.394;12.340;2022-09-29T03:24:50;8.77;;;5.70;;
23300;SDS011;11819;51.394;12.340;2022-09-29T03:27:15;11.77;;;6.03;;
23300;SDS011;11819;51.394;12.340;2022-09-29T03:29:41;10.82;;;6.05;;
23300;SDS011;11819;51.394;12.340;2022-09-29T03:32:07;10.45;;;6.00;;
23300;SDS011;11819;51.394;12.340;2022-09-29T03:34:33;10.20;;;6.03;;
23300;SDS011;11819;51.394;12.340;2022-09-29T03:36:59;10.37;;;6.10;;
23300;SDS011;11819;51.394;12.340;2022-09-29T03:39:25;10.73;;;5.73;;
23300;SDS011;11819;51.394;12.340;2022-09-29T03:41:51;13.60;;;7.27;;
23300;SDS011;11819;51.394;12.340;2022-09-29T03:44:17;11.33;;;6.70;;
23300;SDS011;11819;51.394;12.340;2022-09-29T03:46:43;10.45;;;6.60;;
23300;SDS011;11819;51.394;12.340;2022-09-29T03:49:09;11.23;;;6.50;;
23300;SDS011;11819;51.394;12.340;2022-09-29T03:51:35;12.47;;;6.90;;
23300;SDS011;11819;51.394;12.340;2022-09-29T03:54:02;10.97;;;6.90;;
23300;SDS011;11819;51.394;12.340;2022-09-29T03:56:27;13.67;;;7.13;;
23300;SDS011;11819;51.394;12.340;2022-09-29T03:58:53;11.32;;;6.65;;
23300;SDS011;11819;51.394;12.340;2022-09-29T04:01:19;11.47;;;6.53;;
23300;SDS011;11819;51.394;12.340;2022-09-29T04:03:44;11.07;;;6.27;;
23300;SDS011;11819;51.394;12.340;2022-09-29T04:06:11;10.77;;;6.67;;
23300;SDS011;11819;51.394;12.340;2022-09-29T04:08:37;9.65;;;6.20;;
23300;SDS011;11819;51.394;12.340;2022-09-29T04:11:03;14.23;;;7.13;;
23300;SDS011;11819;51.394;12.340;2022-09-29T04:13:29;14.23;;;8.68;;
23300;SDS011;11819;51.394;12.340;2022-09-29T04:16:02;14.03;;;7.60;;
23300;SDS011;11819;51.394;12.340;2022-09-29T04:18:29;12.97;;;8.17;;
23300;SDS011;11819;51.394;12.340;2022-09-29T04:20:55;12.27;;;7.27;;
23300;SDS011;11819;51.394;12.340;2022-09-29T04:23:25;13.37;;;8.40;;
23300;SDS011;11819;51.394;12.340;2022-09-29T04:25:53;12.77;;;7.90;;
23300;SDS011;11819;51.394;12.340;2022-09-29T04:28:19;12.63;;;8.50;;
23300;SDS011;11819;51.394;12.340;2022-09-29T04:30:45;15.20;;;7.60;;
23300;SDS011;11819;51.394;12.340;2022-09-29T04:33:10;13.02;;;7.85;;
23300;SDS011;11819;51.394;12.340;2022-09-29T04:35:36;14.23;;;7.70;;
23300;SDS011;11819;51.394;12.340;2022-09-29T04:38:01;11.18;;;7.07;;
23300;SDS011;11819;51.394;12.340;2022-09-29T04:40:27;14.33;;;7.57;;
23300;SDS011;11819;51.394;12.340;2022-09-29T04:42:53;13.00;;;8.20;;
23300;SDS011;11819;51.394;12.340;2022-09-29T04:45:18;13.10;;;7.63;;
23300;SDS011;11819;51.394;12.340;2022-09-29T04:47:44;15.17;;;8.33;;
23300;SDS011;11819;51.394;12.340;2022-09-29T04:50:10;14.60;;;7.90;;
23300;SDS011;11819;51.394;12.340;2022-09-29T04:52:35;14.50;;;7.87;;
23300;SDS011;11819;51.394;12.340;2022-09-29T04:55:02;15.33;;;7.53;;
23300;SDS011;11819;51.394;12.340;2022-09-29T04:57:28;13.17;;;7.70;;
23300;SDS011;11819;51.394;12.340;2022-09-29T04:59:54;14.47;;;7.77;;
23300;SDS011;11819;51.394;12.340;2022-09-29T05:02:20;13.90;;;7.60;;
23300;SDS011;11819;51.394;12.340;2022-09-29T05:04:46;13.50;;;8.03;;
23300;SDS011;11819;51.394;12.340;2022-09-29T05:07:13;13.53;;;7.17;;
23300;SDS011;11819;51.394;12.340;2022-09-29T05:09:39;14.57;;;8.10;;
23300;SDS011;11819;51.394;12.340;2022-09-29T05:12:04;12.20;;;7.30;;
23300;SDS011;11819;51.394;12.340;2022-09-29T05:14:30;14.10;;;7.83;;
23300;SDS011;11819;51.394;12.340;2022-09-29T05:16:56;13.63;;;7.30;;
23300;SDS011;11819;51.394;12.340;2022-09-29T05:19:22;13.60;;;7.00;;
23300;SDS011;11819;51.394;12.340;2022-09-29T05:21:48;14.20;;;6.93;;
23300;SDS011;11819;51.394;12.340;2022-09-29T05:24:14;13.53;;;7.97;;
23300;SDS011;11819;51.394;12.340;2022-09-29T05:26:40;13.67;;;7.67;;
23300;SDS011;11819;51.394;12.340;2022-09-29T05:29:06;14.50;;;7.53;;
23300;SDS011;11819;51.394;12.340;2022-09-29T05:31:31;13.87;;;8.33;;
23300;SDS011;11819;51.394;12.340;2022-09-29T05:33:57;12.27;;;7.03;;
23300;SDS011;11819;51.394;12.340;2022-09-29T05:36:23;13.20;;;7.07;;
23300;SDS011;11819;51.394;12.340;2022-09-29T05:38:49;12.30;;;7.37;;
23300;SDS011;11819;51.394;12.340;2022-09-29T05:41:15;14.47;;;7.20;;
23300;SDS011;11819;51.394;12.340;2022-09-29T05:43:46;12.93;;;7.60;;
23300;SDS011;11819;51.394;12.340;2022-09-29T05:46:12;14.03;;;7.27;;
23300;SDS011;11819;51.394;12.340;2022-09-29T05:48:39;12.30;;;7.10;;
23300;SDS011;11819;51.394;12.340;2022-09-29T05:51:11;12.27;;;7.30;;
23300;SDS011;11819;51.394;12.340;2022-09-29T05:53:39;12.87;;;6.67;;
23300;SDS011;11819;51.394;12.340;2022-09-29T05:56:16;12.57;;;6.87;;
23300;SDS011;11819;51.394;12.340;2022-09-29T05:58:44;15.43;;;7.60;;
23300;SDS011;11819;51.394;12.340;2022-09-29T06:01:11;19.60;;;7.37;;
23300;SDS011;11819;51.394;12.340;2022-09-29T06:03:39;15.47;;;7.90;;
23300;SDS011;11819;51.394;12.340;2022-09-29T06:08:35;14.05;;;7.65;;
23300;SDS011;11819;51.394;12.340;2022-09-29T06:11:05;13.37;;;7.30;;
23300;SDS011;11819;51.394;12.340;2022-09-29T06:13:40;12.70;;;7.27;;
23300;SDS011;11819;51.394;12.340;2022-09-29T06:16:07;17.13;;;8.20;;
23300;SDS011;11819;51.394;12.340;2022-09-29T06:18:34;18.63;;;8.65;;
23300;SDS011;11819;51.394;12.340;2022-09-29T06:21:07;15.17;;;7.93;;
23300;SDS011;11819;51.394;12.340;2022-09-29T06:23:34;13.18;;;7.70;;
23300;SDS011;11819;51.394;12.340;2022-09-29T06:26:01;16.30;;;8.43;;
23300;SDS011;11819;51.394;12.340;2022-09-29T06:28:29;15.95;;;8.35;;
23300;SDS011;11819;51.394;12.340;2022-09-29T06:30:59;13.88;;;8.73;;
23300;SDS011;11819;51.394;12.340;2022-09-29T06:33:27;15.73;;;8.57;;
23300;SDS011;11819;51.394;12.340;2022-09-29T06:35:54;17.10;;;9.57;;
23300;SDS011;11819;51.394;12.340;2022-09-29T06:38:39;15.93;;;8.82;;
23300;SDS011;11819;51.394;12.340;2022-09-29T06:41:06;19.00;;;9.70;;
23300;SDS011;11819;51.394;12.340;2022-09-29T06:43:32;18.85;;;9.82;;
23300;SDS011;11819;51.394;12.340;2022-09-29T06:45:59;16.10;;;9.82;;
23300;SDS011;11819;51.394;12.340;2022-09-29T06:48:24;15.32;;;9.68;;
23300;SDS011;11819;51.394;12.340;2022-09-29T06:50:50;17.20;;;9.98;;
23300;SDS011;11819;51.394;12.340;2022-09-29T06:53:16;17.33;;;10.80;;
23300;SDS011;11819;51.394;12.340;2022-09-29T06:55:42;16.75;;;10.50;;
23300;SDS011;11819;51.394;12.340;2022-09-29T06:58:08;18.08;;;10.77;;
23300;SDS011;11819;51.394;12.340;2022-09-29T07:00:34;16.10;;;9.93;;
23300;SDS011;11819;51.394;12.340;2022-09-29T07:03:01;18.05;;;10.18;;
23300;SDS011;11819;51.394;12.340;2022-09-29T07:05:27;15.27;;;9.30;;
23300;SDS011;11819;51.394;12.340;2022-09-29T07:07:52;15.32;;;9.40;;
23300;SDS011;11819;51.394;12.340;2022-09-29T07:10:19;13.65;;;8.88;;
23300;SDS011;11819;51.394;12.340;2022-09-29T07:12:45;15.20;;;9.38;;
23300;SDS011;11819;51.394;12.340;2022-09-29T07:15:11;17.50;;;10.52;;
23300;SDS011;11819;51.394;12.340;2022-09-29T07:17:38;20.95;;;11.45;;
23300;SDS011;11819;51.394;12.340;2022-09-29T07:20:04;18.92;;;11.18;;
23300;SDS011;11819;51.394;12.340;2022-09-29T07:22:31;21.00;;;12.02;;
23300;SDS011;11819;51.394;12.340;2022-09-29T07:24:56;22.65;;;13.82;;
23300;SDS011;11819;51.394;12.340;2022-09-29T07:27:22;22.33;;;12.57;;
23300;SDS011;11819;51.394;12.340;2022-09-29T07:29:49;20.73;;;13.10;;
23300;SDS011;11819;51.394;12.340;2022-09-29T07:32:15;22.35;;;13.05;;
23300;SDS011;11819;51.394;12.340;2022-09-29T07:34:42;22.58;;;12.98;;
23300;SDS011;11819;51.394;12.340;2022-09-29T07:37:07;21.17;;;12.85;;
23300;SDS011;11819;51.394;12.340;2022-09-29T07:39:33;24.05;;;14.13;;
23300;SDS011;11819;51.394;12.340;2022-09-29T07:41:59;21.10;;;12.45;;
23300;SDS011;11819;51.394;12.340;2022-09-29T07:44:24;22.55;;;13.77;;
23300;SDS011;11819;51.394;12.340;2022-09-29T07:46:50;21.45;;;13.85;;
23300;SDS011;11819;51.394;12.340;2022-09-29T07:49:16;24.70;;;14.00;;
23300;SDS011;11819;51.394;12.340;2022-09-29T07:51:42;22.05;;;14.70;;
23300;SDS011;11819;51.394;12.340;2022-09-29T07:54:07;24.70;;;15.50;;
23300;SDS011;11819;51.394;12.340;2022-09-29T07:56:33;28.38;;;16.70;;
23300;SDS011;11819;51.394;12.340;2022-09-29T07:58:59;23.10;;;15.45;;
23300;SDS011;11819;51.394;12.340;2022-09-29T08:01:26;24.67;;;15.45;;
23300;SDS011;11819;51.394;12.340;2022-09-29T08:03:52;24.45;;;16.13;;
23300;SDS011;11819;51.394;12.340;2022-09-29T08:06:19;30.40;;;18.27;;
23300;SDS011;11819;51.394;12.340;2022-09-29T08:08:46;26.30;;;16.50;;
23300;SDS011;11819;51.394;12.340;2022-09-29T08:11:14;26.27;;;15.05;;
23300;SDS011;11819;51.394;12.340;2022-09-29T08:13:41;25.17;;;15.77;;
23300;SDS011;11819;51.394;12.340;2022-09-29T08:16:09;23.88;;;14.98;;
23300;SDS011;11819;51.394;12.340;2022-09-29T08:18:36;23.25;;;13.93;;
23300;SDS011;11819;51.394;12.340;2022-09-29T08:21:03;22.95;;;13.23;;
23300;SDS011;11819;51.394;12.340;2022-09-29T08:23:30;19.95;;;12.00;;
23300;SDS011;11819;51.394;12.340;2022-09-29T08:26:06;18.27;;;11.82;;
23300;SDS011;11819;51.394;12.340;2022-09-29T08:28:34;20.33;;;12.27;;
23300;SDS011;11819;51.394;12.340;2022-09-29T08:31:08;17.88;;;10.40;;
23300;SDS011;11819;51.394;12.340;2022-09-29T08:33:36;17.45;;;11.10;;
23300;SDS011;11819;51.394;12.340;2022-09-29T08:36:02;16.67;;;10.32;;
23300;SDS011;11819;51.394;12.340;2022-09-29T08:38:30;18.90;;;11.30;;
23300;SDS011;11819;51.394;12.340;2022-09-29T08:40:56;19.00;;;11.50;;
23300;SDS011;11819;51.394;12.340;2022-09-29T08:43:30;20.17;;;10.77;;
23300;SDS011;11819;51.394;12.340;2022-09-29T08:46:45;17.30;;;10.45;;
23300;SDS011;11819;51.394;12.340;2022-09-29T08:48:58;18.65;;;9.85;;
23300;SDS011;11819;51.394;12.340;2022-09-29T08:51:29;17.58;;;9.98;;
23300;SDS011;11819;51.394;12.340;2022-09-29T08:56:54;14.35;;;9.05;;
23300;SDS011;11819;51.394;12.340;2022-09-29T08:59:21;15.75;;;9.98;;
23300;SDS011;11819;51.394;12.340;2022-09-29T09:04:33;14.75;;;9.25;;
23300;SDS011;11819;51.394;12.340;2022-09-29T09:21:42;14.02;;;9.48;;
23300;SDS011;11819;51.394;12.340;2022-09-29T09:24:20;16.45;;;9.07;;
23300;SDS011;11819;51.394;12.340;2022-09-29T09:26:57;22.25;;;13.07;;
23300;SDS011;11819;51.394;12.340;2022-09-29T09:29:33;17.13;;;11.35;;
23300;SDS011;11819;51.394;12.340;2022-09-29T09:32:10;60.55;;;11.70;;
23300;SDS011;11819;51.394;12.340;2022-09-29T09:34:43;26.25;;;9.73;;
23300;SDS011;11819;51.394;12.340;2022-09-29T09:39:55;17.55;;;9.75;;
23300;SDS011;11819;51.394;12.340;2022-09-29T09:42:37;24.17;;;9.75;;
23300;SDS011;11819;51.394;12.340;2022-09-29T09:45:04;14.52;;;9.02;;
23300;SDS011;11819;51.394;12.340;2022-09-29T09:47:45;34.03;;;11.57;;
23300;SDS011;11819;51.394;12.340;2022-09-29T09:50:16;16.85;;;8.30;;
23300;SDS011;11819;51.394;12.340;2022-09-29T09:55:19;31.70;;;10.85;;
23300;SDS011;11819;51.394;12.340;2022-09-29T10:00:18;17.00;;;8.18;;
23300;SDS011;11819;51.394;12.340;2022-09-29T10:02:51;35.15;;;9.52;;
23300;SDS011;11819;51.394;12.340;2022-09-29T10:05:20;15.15;;;7.43;;
23300;SDS011;11819;51.394;12.340;2022-09-29T10:08:11;60.22;;;11.23;;
23300;SDS011;11819;51.394;12.340;2022-09-29T10:10:47;70.90;;;13.52;;
23300;SDS011;11819;51.394;12.340;2022-09-29T10:13:13;59.00;;;13.43;;
23300;SDS011;11819;51.394;12.340;2022-09-29T10:15:54;13.73;;;7.93;;
23300;SDS011;11819;51.394;12.340;2022-09-29T10:18:31;11.45;;;7.40;;
23300;SDS011;11819;51.394;12.340;2022-09-29T10:21:03;9.90;;;6.10;;
23300;SDS011;11819;51.394;12.340;2022-09-29T10:23:46;10.13;;;6.03;;
23300;SDS011;11819;51.394;12.340;2022-09-29T10:26:16;12.07;;;6.15;;
23300;SDS011;11819;51.394;12.340;2022-09-29T10:28:48;8.77;;;5.63;;
23300;SDS011;11819;51.394;12.340;2022-09-29T10:31:17;13.23;;;8.48;;
23300;SDS011;11819;51.394;12.340;2022-09-29T10:34:12;13.70;;;6.60;;
23300;SDS011;11819;51.394;12.340;2022-09-29T10:36:56;18.08;;;5.10;;
23300;SDS011;11819;51.394;12.340;2022-09-29T10:39:38;8.05;;;4.22;;
23300;SDS011;11819;51.394;12.340;2022-09-29T10:42:21;9.18;;;4.90;;
23300;SDS011;11819;51.394;12.340;2022-09-29T10:44:50;11.77;;;5.55;;
23300;SDS011;11819;51.394;12.340;2022-09-29T10:47:17;8.18;;;5.68;;
23300;SDS011;11819;51.394;12.340;2022-09-29T10:49:45;12.18;;;5.55;;
23300;SDS011;11819;51.394;12.340;2022-09-29T10:52:16;9.45;;;6.13;;
23300;SDS011;11819;51.394;12.340;2022-09-29T10:54:54;9.30;;;5.88;;
23300;SDS011;11819;51.394;12.340;2022-09-29T10:57:27;9.98;;;5.55;;
23300;SDS011;11819;51.394;12.340;2022-09-29T10:59:54;8.32;;;6.07;;
23300;SDS011;11819;51.394;12.340;2022-09-29T11:02:29;10.55;;;5.88;;
23300;SDS011;11819;51.394;12.340;2022-09-29T11:04:57;9.30;;;6.45;;
23300;SDS011;11819;51.394;12.340;2022-09-29T11:07:25;8.13;;;5.63;;
23300;SDS011;11819;51.394;12.340;2022-09-29T11:09:52;10.40;;;6.47;;
23300;SDS011;11819;51.394;12.340;2022-09-29T11:14:49;10.00;;;6.30;;
23300;SDS011;11819;51.394;12.340;2022-09-29T11:17:22;10.68;;;6.15;;
23300;SDS011;11819;51.394;12.340;2022-09-29T11:19:50;9.77;;;6.45;;
23300;SDS011;11819;51.394;12.340;2022-09-29T11:22:20;10.50;;;6.63;;
23300;SDS011;11819;51.394;12.340;2022-09-29T11:32:54;9.85;;;6.78;;
23300;SDS011;11819;51.394;12.340;2022-09-29T11:35:38;10.82;;;8.52;;
23300;SDS011;11819;51.394;12.340;2022-09-29T11:43:53;13.85;;;9.25;;
23300;SDS011;11819;51.394;12.340;2022-09-29T12:08:39;10.07;;;8.00;;
23300;SDS011;11819;51.394;12.340;2022-09-29T12:16:51;11.07;;;7.60;;
23300;SDS011;11819;51.394;12.340;2022-09-29T12:19:22;12.00;;;8.73;;
23300;SDS011;11819;51.394;12.340;2022-09-29T12:21:52;12.77;;;8.32;;
23300;SDS011;11819;51.394;12.340;2022-09-29T12:24:31;10.32;;;7.45;;
23300;SDS011;11819;51.394;12.340;2022-09-29T12:30:00;11.05;;;7.53;;
23300;SDS011;11819;51.394;12.340;2022-09-29T12:32:28;10.75;;;8.55;;
23300;SDS011;11819;51.394;12.340;2022-09-29T12:40:37;9.75;;;7.57;;
23300;SDS011;11819;51.394;12.340;2022-09-29T12:43:10;12.50;;;8.55;;
23300;SDS011;11819;51.394;12.340;2022-09-29T12:45:59;10.90;;;7.82;;
23300;SDS011;11819;51.394;12.340;2022-09-29T12:48:34;12.02;;;8.52;;
23300;SDS011;11819;51.394;12.340;2022-09-29T12:51:16;10.57;;;8.40;;
23300;SDS011;11819;51.394;12.340;2022-09-29T12:53:55;11.75;;;9.25;;
23300;SDS011;11819;51.394;12.340;2022-09-29T12:56:37;11.50;;;8.60;;
23300;SDS011;11819;51.394;12.340;2022-09-29T12:59:14;11.77;;;8.95;;
23300;SDS011;11819;51.394;12.340;2022-09-29T13:01:54;11.45;;;8.68;;
23300;SDS011;11819;51.394;12.340;2022-09-29T13:24:53;10.68;;;8.73;;
23300;SDS011;11819;51.394;12.340;2022-09-29T13:27:41;10.98;;;8.57;;
23300;SDS011;11819;51.394;12.340;2022-09-29T13:33:08;10.10;;;8.23;;
23300;SDS011;11819;51.394;12.340;2022-09-29T13:35:41;10.35;;;7.43;;
23300;SDS011;11819;51.394;12.340;2022-09-29T13:38:14;10.10;;;8.35;;
23300;SDS011;11819;51.394;12.340;2022-09-29T13:56:46;8.23;;;6.60;;
23300;SDS011;11819;51.394;12.340;2022-09-29T13:59:13;7.35;;;5.90;;
23300;SDS011;11819;51.394;12.340;2022-09-29T14:01:48;8.57;;;6.15;;
23300;SDS011;11819;51.394;12.340;2022-09-29T14:07:08;7.57;;;6.38;;
23300;SDS011;11819;51.394;12.340;2022-09-29T14:09:39;7.50;;;6.20;;
23300;SDS011;11819;51.394;12.340;2022-09-29T14:12:08;8.00;;;6.43;;
23300;SDS011;11819;51.394;12.340;2022-09-29T14:14:43;10.52;;;6.72;;
23300;SDS011;11819;51.394;12.340;2022-09-29T14:17:25;14.00;;;7.07;;
23300;SDS011;11819;51.394;12.340;2022-09-29T14:30:17;9.40;;;7.15;;
23300;SDS011;11819;51.394;12.340;2022-09-29T14:33:41;7.95;;;6.00;;
23300;SDS011;11819;51.394;12.340;2022-09-29T14:38:25;8.07;;;6.78;;
23300;SDS011;11819;51.394;12.340;2022-09-29T14:43:44;8.80;;;6.82;;
23300;SDS011;11819;51.394;12.340;2022-09-29T14:52:58;7.55;;;6.72;;
23300;SDS011;11819;51.394;12.340;2022-09-29T14:55:38;9.00;;;6.60;;
23300;SDS011;11819;51.394;12.340;2022-09-29T15:01:22;7.63;;;6.68;;
23300;SDS011;11819;51.394;12.340;2022-09-29T15:03:57;7.00;;;5.72;;
23300;SDS011;11819;51.394;12.340;2022-09-29T15:06:48;7.72;;;6.30;;
23300;SDS011;11819;51.394;12.340;2022-09-29T15:09:17;11.80;;;7.05;;
23300;SDS011;11819;51.394;12.340;2022-09-29T15:11:48;268.35;;;23.08;;
23300;SDS011;11819;51.394;12.340;2022-09-29T15:19:48;10.77;;;6.95;;
23300;SDS011;11819;51.394;12.340;2022-09-29T15:27:33;12.05;;;6.35;;
23300;SDS011;11819;51.394;12.340;2022-09-29T15:30:02;11.07;;;8.32;;
23300;SDS011;11819;51.394;12.340;2022-09-29T15:32:29;43.47;;;9.32;;
23300;SDS011;11819;51.394;12.340;2022-09-29T15:35:03;56.78;;;11.95;;
23300;SDS011;11819;51.394;12.340;2022-09-29T15:40:19;7.82;;;5.78;;
23300;SDS011;11819;51.394;12.340;2022-09-29T15:42:46;8.82;;;6.25;;
23300;SDS011;11819;51.394;12.340;2022-09-29T15:45:17;10.02;;;6.20;;
23300;SDS011;11819;51.394;12.340;2022-09-29T15:47:46;6.93;;;5.70;;
23300;SDS011;11819;51.394;12.340;2022-09-29T15:50:19;8.40;;;6.35;;
23300;SDS011;11819;51.394;12.340;2022-09-29T15:52:47;9.70;;;6.78;;
23300;SDS011;11819;51.394;12.340;2022-09-29T15:55:15;20.38;;;9.65;;
23300;SDS011;11819;51.394;12.340;2022-09-29T15:57:44;14.70;;;12.00;;
23300;SDS011;11819;51.394;12.340;2022-09-29T16:03:13;9.65;;;7.07;;
23300;SDS011;11819;51.394;12.340;2022-09-29T16:05:51;9.18;;;7.35;;
23300;SDS011;11819;51.394;12.340;2022-09-29T16:08:23;11.00;;;7.47;;
23300;SDS011;11819;51.394;12.340;2022-09-29T16:10:56;8.25;;;6.22;;
23300;SDS011;11819;51.394;12.340;2022-09-29T16:13:32;10.88;;;6.78;;
23300;SDS011;11819;51.394;12.340;2022-09-29T16:16:10;8.40;;;6.60;;
23300;SDS011;11819;51.394;12.340;2022-09-29T16:18:40;7.93;;;6.75;;
23300;SDS011;11819;51.394;12.340;2022-09-29T16:21:11;8.35;;;7.03;;
23300;SDS011;11819;51.394;12.340;2022-09-29T16:24:28;8.18;;;6.63;;
23300;SDS011;11819;51.394;12.340;2022-09-29T16:31:47;11.23;;;7.20;;
23300;SDS011;11819;51.394;12.340;2022-09-29T16:39:16;6.95;;;4.53;;
23300;SDS011;11819;51.394;12.340;2022-09-29T16:41:48;6.55;;;4.80;;
23300;SDS011;11819;51.394;12.340;2022-09-29T16:49:52;9.70;;;6.72;;
23300;SDS011;11819;51.394;12.340;2022-09-29T16:54:54;7.30;;;5.00;;
23300;SDS011;11819;51.394;12.340;2022-09-29T17:00:15;11.00;;;6.57;;
23300;SDS011;11819;51.394;12.340;2022-09-29T17:02:42;9.48;;;7.30;;
23300;SDS011;11819;51.394;12.340;2022-09-29T17:05:08;10.88;;;7.50;;
23300;SDS011;11819;51.394;12.340;2022-09-29T17:07:37;9.48;;;7.25;;
23300;SDS011;11819;51.394;12.340;2022-09-29T17:10:05;11.32;;;7.07;;
23300;SDS011;11819;51.394;12.340;2022-09-29T17:12:34;10.32;;;7.32;;
23300;SDS011;11819;51.394;12.340;2022-09-29T17:14:59;10.25;;;8.00;;
23300;SDS011;11819;51.394;12.340;2022-09-29T17:17:26;10.32;;;7.93;;
23300;SDS011;11819;51.394;12.340;2022-09-29T17:19:53;9.73;;;7.80;;
23300;SDS011;11819;51.394;12.340;2022-09-29T17:22:24;11.80;;;8.10;;
23300;SDS011;11819;51.394;12.340;2022-09-29T17:24:53;12.80;;;8.48;;
23300;SDS011;11819;51.394;12.340;2022-09-29T17:27:19;13.00;;;8.85;;
23300;SDS011;11819;51.394;12.340;2022-09-29T17:30:04;13.05;;;9.07;;
23300;SDS011;11819;51.394;12.340;2022-09-29T17:32:30;11.18;;;8.95;;
23300;SDS011;11819;51.394;12.340;2022-09-29T17:34:56;10.88;;;8.15;;
23300;SDS011;11819;51.394;12.340;2022-09-29T17:37:22;11.70;;;8.88;;
23300;SDS011;11819;51.394;12.340;2022-09-29T17:39:47;13.90;;;8.38;;
23300;SDS011;11819;51.394;12.340;2022-09-29T17:42:13;14.30;;;7.70;;
23300;SDS011;11819;51.394;12.340;2022-09-29T17:44:39;12.60;;;8.13;;
23300;SDS011;11819;51.394;12.340;2022-09-29T17:47:12;10.95;;;8.18;;
23300;SDS011;11819;51.394;12.340;2022-09-29T17:49:39;13.63;;;10.50;;
23300;SDS011;11819;51.394;12.340;2022-09-29T17:52:06;12.18;;;8.82;;
23300;SDS011;11819;51.394;12.340;2022-09-29T17:54:34;12.30;;;8.57;;
23300;SDS011;11819;51.394;12.340;2022-09-29T17:57:01;11.73;;;8.30;;
23300;SDS011;11819;51.394;12.340;2022-09-29T17:59:28;11.52;;;8.52;;
23300;SDS011;11819;51.394;12.340;2022-09-29T18:01:55;11.35;;;8.05;;
23300;SDS011;11819;51.394;12.340;2022-09-29T18:04:22;11.18;;;8.55;;
23300;SDS011;11819;51.394;12.340;2022-09-29T18:06:49;11.23;;;8.13;;
23300;SDS011;11819;51.394;12.340;2022-09-29T18:09:15;12.00;;;8.85;;
23300;SDS011;11819;51.394;12.340;2022-09-29T18:11:42;11.68;;;9.23;;
23300;SDS011;11819;51.394;12.340;2022-09-29T18:14:08;13.52;;;8.38;;
23300;SDS011;11819;51.394;12.340;2022-09-29T18:16:34;12.35;;;8.50;;